sensor_id;sensor_type;location;lat;lon;timestamp;temperature;humidity
30150;DHT22;16962;48.646;9.026;2023-07-24T00:01:32;17.30;99.90
30150;DHT22;16962;48.646;9.026;2023-07-24T00:04:19;17.30;99.90
30150;DHT22;16962;48.646;9.026;2023-07-24T00:07:07;17.40;99.90
30150;DHT22;16962;48.646;9.026;2023-07-24T00:09:57;17.50;99.90
30150;DHT22;16962;48.646;9.026;2023-07-24T00:12:44;17.40;99.90
30150;DHT22;16962;48.646;9.026;2023-07-24T00:15:33;17.50;99.90
30150;DHT22;16962;48.646;9.026;2023-07-24T00:18:23;17.60;99.90
30150;DHT22;16962;48.646;9.026;2023-07-24T00:21:15;17.50;99.90
30150;DHT22;16962;48.646;9.026;2023-07-24T00:24:02;17.40;99.90
30150;DHT22;16962;48.646;9.026;2023-07-24T00:26:50;17.30;99.90
30150;DHT22;16962;48.646;9.026;2023-07-24T00:29:37;17.20;90.10
30150;DHT22;16962;48.646;9.026;2023-07-24T00:32:30;17.00;99.90
30150;DHT22;16962;48.646;9.026;2023-07-24T00:35:23;16.90;99.90
30150;DHT22;16962;48.646;9.026;2023-07-24T00:38:10;16.70;99.90
30150;DHT22;16962;48.646;9.026;2023-07-24T00:40:57;16.70;99.90
30150;DHT22;16962;48.646;9.026;2023-07-24T00:43:45;16.70;99.90
30150;DHT22;16962;48.646;9.026;2023-07-24T00:46:33;16.70;99.90
30150;DHT22;16962;48.646;9.026;2023-07-24T00:49:25;16.70;99.90
30150;DHT22;16962;48.646;9.026;2023-07-24T00:52:15;16.80;99.90
30150;DHT22;16962;48.646;9.026;2023-07-24T00:55:05;16.90;99.90
30150;DHT22;16962;48.646;9.026;2023-07-24T00:57:52;16.90;99.90
30150;DHT22;16962;48.646;9.026;2023-07-24T01:00:41;16.90;99.90
30150;DHT22;16962;48.646;9.026;2023-07-24T01:03:33;16.80;99.90
30150;DHT22;16962;48.646;9.026;2023-07-24T01:06:20;16.70;99.90
30150;DHT22;16962;48.646;9.026;2023-07-24T01:09:07;16.70;99.90
30150;DHT22;16962;48.646;9.026;2023-07-24T01:12:19;16.60;99.90
30150;DHT22;16962;48.646;9.026;2023-07-24T01:15:23;16.40;99.90
30150;DHT22;16962;48.646;9.026;2023-07-24T01:18:17;16.40;99.90
30150;DHT22;16962;48.646;9.026;2023-07-24T01:21:06;16.20;99.90
30150;DHT22;16962;48.646;9.026;2023-07-24T01:24:22;16.20;99.90
30150;DHT22;16962;48.646;9.026;2023-07-24T01:27:26;16.20;99.90
30150;DHT22;16962;48.646;9.026;2023-07-24T01:30:24;16.10;99.90
30150;DHT22;16962;48.646;9.026;2023-07-24T01:33:18;16.10;99.90
30150;DHT22;16962;48.646;9.026;2023-07-24T01:36:06;16.00;99.90
30150;DHT22;16962;48.646;9.026;2023-07-24T01:38:54;15.80;99.90
30150;DHT22;16962;48.646;9.026;2023-07-24T01:41:44;15.80;99.90
30150;DHT22;16962;48.646;9.026;2023-07-24T01:44:31;15.80;99.90
30150;DHT22;16962;48.646;9.026;2023-07-24T01:47:19;16.00;99.90
30150;DHT22;16962;48.646;9.026;2023-07-24T01:50:09;16.00;99.90
30150;DHT22;16962;48.646;9.026;2023-07-24T01:52:56;16.20;99.90
30150;DHT22;16962;48.646;9.026;2023-07-24T01:55:43;16.30;99.90
30150;DHT22;16962;48.646;9.026;2023-07-24T01:58:32;16.30;99.90
30150;DHT22;16962;48.646;9.026;2023-07-24T02:01:20;16.40;99.90
30150;DHT22;16962;48.646;9.026;2023-07-24T02:04:10;16.50;99.90
30150;DHT22;16962;48.646;9.026;2023-07-24T02:07:03;16.60;99.90
30150;DHT22;16962;48.646;9.026;2023-07-24T02:10:17;16.60;99.90
30150;DHT22;16962;48.646;9.026;2023-07-24T02:13:24;16.60;99.90
30150;DHT22;16962;48.646;9.026;2023-07-24T02:16:12;16.60;99.90
30150;DHT22;16962;48.646;9.026;2023-07-24T02:18:59;16.50;99.90
30150;DHT22;16962;48.646;9.026;2023-07-24T02:21:48;16.50;99.90
30150;DHT22;16962;48.646;9.026;2023-07-24T02:24:36;16.40;99.90
30150;DHT22;16962;48.646;9.026;2023-07-24T02:27:29;16.30;99.90
30150;DHT22;16962;48.646;9.026;2023-07-24T02:30:26;16.20;99.90
30150;DHT22;16962;48.646;9.026;2023-07-24T02:33:14;16.10;99.90
30150;DHT22;16962;48.646;9.026;2023-07-24T02:36:01;16.00;99.90
30150;DHT22;16962;48.646;9.026;2023-07-24T02:38:51;15.90;99.90
30150;DHT22;16962;48.646;9.026;2023-07-24T02:41:39;15.70;99.90
30150;DHT22;16962;48.646;9.026;2023-07-24T02:44:34;15.50;99.90
30150;DHT22;16962;48.646;9.026;2023-07-24T02:47:27;15.40;1.00
30150;DHT22;16962;48.646;9.026;2023-07-24T02:50:15;15.20;1.00
30150;DHT22;16962;48.646;9.026;2023-07-24T02:53:02;15.20;99.90
30150;DHT22;16962;48.646;9.026;2023-07-24T02:55:56;15.10;99.90
30150;DHT22;16962;48.646;9.026;2023-07-24T02:58:43;15.00;99.90
30150;DHT22;16962;48.646;9.026;2023-07-24T03:01:31;15.00;99.90
30150;DHT22;16962;48.646;9.026;2023-07-24T03:04:21;14.90;1.00
30150;DHT22;16962;48.646;9.026;2023-07-24T03:07:10;14.90;1.00
30150;DHT22;16962;48.646;9.026;2023-07-24T03:09:58;14.80;99.90
30150;DHT22;16962;48.646;9.026;2023-07-24T03:12:47;14.70;99.90
30150;DHT22;16962;48.646;9.026;2023-07-24T03:15:35;14.70;1.00
30150;DHT22;16962;48.646;9.026;2023-07-24T03:18:23;14.50;99.90
30150;DHT22;16962;48.646;9.026;2023-07-24T03:21:10;14.50;1.00
30150;DHT22;16962;48.646;9.026;2023-07-24T03:23:57;14.50;1.00
30150;DHT22;16962;48.646;9.026;2023-07-24T03:26:52;14.40;99.90
30150;DHT22;16962;48.646;9.026;2023-07-24T03:29:44;14.40;99.90
30150;DHT22;16962;48.646;9.026;2023-07-24T03:32:31;14.40;1.00
30150;DHT22;16962;48.646;9.026;2023-07-24T03:35:19;14.40;99.90
30150;DHT22;16962;48.646;9.026;2023-07-24T03:38:06;14.40;99.90
30150;DHT22;16962;48.646;9.026;2023-07-24T03:40:56;14.50;1.00
30150;DHT22;16962;48.646;9.026;2023-07-24T03:44:02;14.70;99.90
30150;DHT22;16962;48.646;9.026;2023-07-24T03:46:49;14.70;99.90
30150;DHT22;16962;48.646;9.026;2023-07-24T03:49:37;14.60;99.90
30150;DHT22;16962;48.646;9.026;2023-07-24T03:52:24;14.70;99.90
30150;DHT22;16962;48.646;9.026;2023-07-24T03:55:11;14.80;1.00
30150;DHT22;16962;48.646;9.026;2023-07-24T03:57:58;14.80;1.00
30150;DHT22;16962;48.646;9.026;2023-07-24T04:00:51;15.00;59.20
30150;DHT22;16962;48.646;9.026;2023-07-24T04:03:52;15.40;99.90
30150;DHT22;16962;48.646;9.026;2023-07-24T04:06:57;15.50;1.00
30150;DHT22;16962;48.646;9.026;2023-07-24T04:10:03;15.50;99.90
30150;DHT22;16962;48.646;9.026;2023-07-24T04:12:54;15.80;99.90
30150;DHT22;16962;48.646;9.026;2023-07-24T04:15:41;16.00;94.10
30150;DHT22;16962;48.646;9.026;2023-07-24T04:18:28;16.10;1.00
30150;DHT22;16962;48.646;9.026;2023-07-24T04:21:15;16.30;1.00
30150;DHT22;16962;48.646;9.026;2023-07-24T04:24:05;16.30;1.00
30150;DHT22;16962;48.646;9.026;2023-07-24T04:26:53;16.40;1.00
30150;DHT22;16962;48.646;9.026;2023-07-24T04:29:40;16.40;1.00
30150;DHT22;16962;48.646;9.026;2023-07-24T04:32:27;16.30;1.00
30150;DHT22;16962;48.646;9.026;2023-07-24T04:35:16;16.40;1.00
30150;DHT22;16962;48.646;9.026;2023-07-24T04:38:04;16.40;1.00
30150;DHT22;16962;48.646;9.026;2023-07-24T04:40:51;16.60;1.00
30150;DHT22;16962;48.646;9.026;2023-07-24T04:43:38;16.60;99.90
30150;DHT22;16962;48.646;9.026;2023-07-24T04:46:25;16.70;99.90
30150;DHT22;16962;48.646;9.026;2023-07-24T04:49:13;16.60;99.90
30150;DHT22;16962;48.646;9.026;2023-07-24T04:52:00;16.50;99.90
30150;DHT22;16962;48.646;9.026;2023-07-24T04:54:47;16.50;99.90
30150;DHT22;16962;48.646;9.026;2023-07-24T04:57:34;16.50;99.90
30150;DHT22;16962;48.646;9.026;2023-07-24T05:00:22;16.50;99.90
30150;DHT22;16962;48.646;9.026;2023-07-24T05:03:12;16.60;99.90
30150;DHT22;16962;48.646;9.026;2023-07-24T05:05:59;16.70;99.90
30150;DHT22;16962;48.646;9.026;2023-07-24T05:08:47;16.90;99.90
30150;DHT22;16962;48.646;9.026;2023-07-24T05:11:34;17.00;99.90
30150;DHT22;16962;48.646;9.026;2023-07-24T05:14:21;17.00;99.90
30150;DHT22;16962;48.646;9.026;2023-07-24T05:17:09;17.10;99.90
30150;DHT22;16962;48.646;9.026;2023-07-24T05:19:56;17.10;99.90
30150;DHT22;16962;48.646;9.026;2023-07-24T05:22:47;17.10;99.90
30150;DHT22;16962;48.646;9.026;2023-07-24T05:25:34;17.10;99.90
30150;DHT22;16962;48.646;9.026;2023-07-24T05:28:21;17.10;99.90
30150;DHT22;16962;48.646;9.026;2023-07-24T05:31:09;17.10;99.90
30150;DHT22;16962;48.646;9.026;2023-07-24T05:33:56;17.20;99.90
30150;DHT22;16962;48.646;9.026;2023-07-24T05:36:46;17.30;99.90
30150;DHT22;16962;48.646;9.026;2023-07-24T05:39:33;17.40;99.90
30150;DHT22;16962;48.646;9.026;2023-07-24T05:42:21;17.40;97.60
30150;DHT22;16962;48.646;9.026;2023-07-24T05:45:15;17.50;8.70
30150;DHT22;16962;48.646;9.026;2023-07-24T05:48:21;17.60;1.00
30150;DHT22;16962;48.646;9.026;2023-07-24T05:51:08;17.60;1.00
30150;DHT22;16962;48.646;9.026;2023-07-24T05:53:58;17.60;1.00
30150;DHT22;16962;48.646;9.026;2023-07-24T05:56:45;17.70;1.00
30150;DHT22;16962;48.646;9.026;2023-07-24T05:59:33;17.80;1.00
30150;DHT22;16962;48.646;9.026;2023-07-24T06:02:24;17.90;1.00
30150;DHT22;16962;48.646;9.026;2023-07-24T06:05:12;17.90;1.00
30150;DHT22;16962;48.646;9.026;2023-07-24T06:08:00;17.80;1.00
30150;DHT22;16962;48.646;9.026;2023-07-24T06:10:48;17.80;1.00
30150;DHT22;16962;48.646;9.026;2023-07-24T06:13:54;17.90;1.00
30150;DHT22;16962;48.646;9.026;2023-07-24T06:16:44;18.00;1.00
30150;DHT22;16962;48.646;9.026;2023-07-24T06:19:32;18.00;1.00
30150;DHT22;16962;48.646;9.026;2023-07-24T06:22:21;18.00;1.00
30150;DHT22;16962;48.646;9.026;2023-07-24T06:25:09;18.00;1.00
30150;DHT22;16962;48.646;9.026;2023-07-24T06:28:00;18.10;1.00
30150;DHT22;16962;48.646;9.026;2023-07-24T06:30:48;18.10;1.00
30150;DHT22;16962;48.646;9.026;2023-07-24T06:33:35;18.20;1.00
30150;DHT22;16962;48.646;9.026;2023-07-24T06:36:22;18.30;1.00
30150;DHT22;16962;48.646;9.026;2023-07-24T06:39:11;18.40;1.00
30150;DHT22;16962;48.646;9.026;2023-07-24T06:41:59;18.60;1.00
30150;DHT22;16962;48.646;9.026;2023-07-24T06:44:46;18.80;1.00
30150;DHT22;16962;48.646;9.026;2023-07-24T06:47:37;18.90;1.00
30150;DHT22;16962;48.646;9.026;2023-07-24T06:50:24;19.00;1.00
30150;DHT22;16962;48.646;9.026;2023-07-24T06:53:13;19.20;1.00
30150;DHT22;16962;48.646;9.026;2023-07-24T06:56:03;19.30;1.00
30150;DHT22;16962;48.646;9.026;2023-07-24T06:58:50;19.40;1.00
30150;DHT22;16962;48.646;9.026;2023-07-24T07:01:37;19.50;1.00
30150;DHT22;16962;48.646;9.026;2023-07-24T07:04:25;19.60;1.00
30150;DHT22;16962;48.646;9.026;2023-07-24T07:07:16;19.70;99.90
30150;DHT22;16962;48.646;9.026;2023-07-24T07:10:04;19.70;99.90
30150;DHT22;16962;48.646;9.026;2023-07-24T07:12:52;19.90;99.90
30150;DHT22;16962;48.646;9.026;2023-07-24T07:15:39;20.00;99.90
30150;DHT22;16962;48.646;9.026;2023-07-24T07:18:27;19.90;99.90
30150;DHT22;16962;48.646;9.026;2023-07-24T07:21:17;20.00;99.90
30150;DHT22;16962;48.646;9.026;2023-07-24T07:24:04;20.20;99.90
30150;DHT22;16962;48.646;9.026;2023-07-24T07:27:00;20.10;99.90
30150;DHT22;16962;48.646;9.026;2023-07-24T07:29:48;20.10;99.90
30150;DHT22;16962;48.646;9.026;2023-07-24T07:32:35;20.20;99.90
30150;DHT22;16962;48.646;9.026;2023-07-24T07:35:23;20.20;99.90
30150;DHT22;16962;48.646;9.026;2023-07-24T07:38:13;20.30;99.90
30150;DHT22;16962;48.646;9.026;2023-07-24T07:41:04;20.40;99.90
30150;DHT22;16962;48.646;9.026;2023-07-24T07:43:52;20.40;99.90
30150;DHT22;16962;48.646;9.026;2023-07-24T07:46:39;20.40;99.90
30150;DHT22;16962;48.646;9.026;2023-07-24T07:49:27;20.30;99.90
30150;DHT22;16962;48.646;9.026;2023-07-24T07:52:17;20.20;99.90
30150;DHT22;16962;48.646;9.026;2023-07-24T07:55:05;19.90;99.90
30150;DHT22;16962;48.646;9.026;2023-07-24T07:57:53;19.70;99.90
30150;DHT22;16962;48.646;9.026;2023-07-24T08:00:46;19.50;1.00
30150;DHT22;16962;48.646;9.026;2023-07-24T08:03:34;19.30;1.00
30150;DHT22;16962;48.646;9.026;2023-07-24T08:06:30;19.20;1.00
30150;DHT22;16962;48.646;9.026;2023-07-24T08:09:18;19.00;99.90
30150;DHT22;16962;48.646;9.026;2023-07-24T08:12:06;18.70;99.90
30150;DHT22;16962;48.646;9.026;2023-07-24T08:15:18;18.30;1.00
30150;DHT22;16962;48.646;9.026;2023-07-24T08:18:08;17.90;1.00
30150;DHT22;16962;48.646;9.026;2023-07-24T08:20:58;17.70;1.00
30150;DHT22;16962;48.646;9.026;2023-07-24T08:23:49;17.60;1.00
30150;DHT22;16962;48.646;9.026;2023-07-24T08:26:36;17.60;99.90
30150;DHT22;16962;48.646;9.026;2023-07-24T08:29:29;17.50;1.00
30150;DHT22;16962;48.646;9.026;2023-07-24T08:32:22;17.60;99.90
30150;DHT22;16962;48.646;9.026;2023-07-24T08:35:10;17.60;99.90
30150;DHT22;16962;48.646;9.026;2023-07-24T08:37:57;17.60;56.20
30150;DHT22;16962;48.646;9.026;2023-07-24T08:40:48;17.60;99.90
30150;DHT22;16962;48.646;9.026;2023-07-24T08:43:36;17.60;1.00
30150;DHT22;16962;48.646;9.026;2023-07-24T08:46:24;17.70;99.90
30150;DHT22;16962;48.646;9.026;2023-07-24T08:49:12;17.80;99.90
30150;DHT22;16962;48.646;9.026;2023-07-24T08:52:01;17.80;99.90
30150;DHT22;16962;48.646;9.026;2023-07-24T08:54:49;17.90;1.00
30150;DHT22;16962;48.646;9.026;2023-07-24T08:57:42;18.00;99.90
30150;DHT22;16962;48.646;9.026;2023-07-24T09:00:41;18.20;99.90
30150;DHT22;16962;48.646;9.026;2023-07-24T09:03:31;18.40;1.00
30150;DHT22;16962;48.646;9.026;2023-07-24T09:06:26;18.50;99.90
30150;DHT22;16962;48.646;9.026;2023-07-24T09:09:15;18.70;1.00
30150;DHT22;16962;48.646;9.026;2023-07-24T09:12:07;18.90;1.00
30150;DHT22;16962;48.646;9.026;2023-07-24T09:15:03;19.10;99.90
30150;DHT22;16962;48.646;9.026;2023-07-24T09:17:54;19.30;1.00
30150;DHT22;16962;48.646;9.026;2023-07-24T09:20:44;19.50;1.00
30150;DHT22;16962;48.646;9.026;2023-07-24T09:23:31;19.80;99.90
30150;DHT22;16962;48.646;9.026;2023-07-24T09:26:19;19.80;99.90
30150;DHT22;16962;48.646;9.026;2023-07-24T09:29:10;19.80;33.20
30150;DHT22;16962;48.646;9.026;2023-07-24T09:32:01;19.70;77.80
30150;DHT22;16962;48.646;9.026;2023-07-24T09:34:49;19.70;1.00
30150;DHT22;16962;48.646;9.026;2023-07-24T09:37:41;19.70;33.30
30150;DHT22;16962;48.646;9.026;2023-07-24T09:40:41;19.70;10.30
30150;DHT22;16962;48.646;9.026;2023-07-24T09:43:32;19.70;1.80
30150;DHT22;16962;48.646;9.026;2023-07-24T09:46:25;19.70;29.70
30150;DHT22;16962;48.646;9.026;2023-07-24T09:49:17;19.60;99.90
30150;DHT22;16962;48.646;9.026;2023-07-24T09:52:07;19.60;99.90
30150;DHT22;16962;48.646;9.026;2023-07-24T09:55:19;19.60;99.90
30150;DHT22;16962;48.646;9.026;2023-07-24T09:58:12;19.50;99.90
30150;DHT22;16962;48.646;9.026;2023-07-24T10:01:03;19.30;99.90
30150;DHT22;16962;48.646;9.026;2023-07-24T10:03:56;19.30;1.00
30150;DHT22;16962;48.646;9.026;2023-07-24T10:07:08;19.20;1.00
30150;DHT22;16962;48.646;9.026;2023-07-24T10:09:58;19.10;99.90
30150;DHT22;16962;48.646;9.026;2023-07-24T10:12:46;18.90;1.00
30150;DHT22;16962;48.646;9.026;2023-07-24T10:15:53;18.70;1.00
30150;DHT22;16962;48.646;9.026;2023-07-24T10:19:01;18.60;99.90
30150;DHT22;16962;48.646;9.026;2023-07-24T10:22:03;18.40;99.90
30150;DHT22;16962;48.646;9.026;2023-07-24T10:24:55;18.30;35.40
30150;DHT22;16962;48.646;9.026;2023-07-24T10:28:13;18.10;23.70
30150;DHT22;16962;48.646;9.026;2023-07-24T10:31:03;17.90;7.30
30150;DHT22;16962;48.646;9.026;2023-07-24T10:34:43;17.80;99.90
30150;DHT22;16962;48.646;9.026;2023-07-24T10:37:37;17.70;99.90
30150;DHT22;16962;48.646;9.026;2023-07-24T10:40:43;17.60;99.90
30150;DHT22;16962;48.646;9.026;2023-07-24T10:43:50;17.50;99.90
30150;DHT22;16962;48.646;9.026;2023-07-24T10:46:41;17.50;99.90
30150;DHT22;16962;48.646;9.026;2023-07-24T10:49:50;17.40;99.90
30150;DHT22;16962;48.646;9.026;2023-07-24T10:52:46;17.40;99.90
30150;DHT22;16962;48.646;9.026;2023-07-24T10:55:36;17.40;99.90
30150;DHT22;16962;48.646;9.026;2023-07-24T10:58:25;17.40;99.90
30150;DHT22;16962;48.646;9.026;2023-07-24T11:01:14;17.30;99.90
30150;DHT22;16962;48.646;9.026;2023-07-24T11:04:04;17.30;99.90
30150;DHT22;16962;48.646;9.026;2023-07-24T11:06:53;17.30;99.90
30150;DHT22;16962;48.646;9.026;2023-07-24T11:09:41;17.20;99.90
30150;DHT22;16962;48.646;9.026;2023-07-24T11:12:28;17.20;99.90
30150;DHT22;16962;48.646;9.026;2023-07-24T11:15:24;17.20;99.90
30150;DHT22;16962;48.646;9.026;2023-07-24T11:18:46;17.10;99.90
30150;DHT22;16962;48.646;9.026;2023-07-24T11:21:41;17.00;99.90
30150;DHT22;16962;48.646;9.026;2023-07-24T11:24:30;17.00;99.90
30150;DHT22;16962;48.646;9.026;2023-07-24T11:27:18;17.00;99.90
30150;DHT22;16962;48.646;9.026;2023-07-24T11:30:06;17.00;99.90
30150;DHT22;16962;48.646;9.026;2023-07-24T11:32:57;17.20;99.90
30150;DHT22;16962;48.646;9.026;2023-07-24T11:35:46;17.40;99.90
30150;DHT22;16962;48.646;9.026;2023-07-24T11:38:35;17.80;99.90
30150;DHT22;16962;48.646;9.026;2023-07-24T11:41:25;18.70;99.90
30150;DHT22;16962;48.646;9.026;2023-07-24T11:44:13;18.70;99.90
30150;DHT22;16962;48.646;9.026;2023-07-24T11:47:06;19.00;99.90
30150;DHT22;16962;48.646;9.026;2023-07-24T11:49:59;19.00;99.90
30150;DHT22;16962;48.646;9.026;2023-07-24T11:52:48;18.90;99.90
30150;DHT22;16962;48.646;9.026;2023-07-24T11:55:36;18.80;99.90
30150;DHT22;16962;48.646;9.026;2023-07-24T11:58:27;18.70;99.90
30150;DHT22;16962;48.646;9.026;2023-07-24T12:01:15;19.10;99.90
30150;DHT22;16962;48.646;9.026;2023-07-24T12:04:02;19.90;99.90
30150;DHT22;16962;48.646;9.026;2023-07-24T12:06:50;20.80;99.90
30150;DHT22;16962;48.646;9.026;2023-07-24T12:09:42;21.10;99.90
30150;DHT22;16962;48.646;9.026;2023-07-24T12:12:44;20.60;1.00
30150;DHT22;16962;48.646;9.026;2023-07-24T12:15:33;20.50;99.90
30150;DHT22;16962;48.646;9.026;2023-07-24T12:18:25;21.20;99.90
30150;DHT22;16962;48.646;9.026;2023-07-24T12:21:12;22.10;99.90
30150;DHT22;16962;48.646;9.026;2023-07-24T12:24:00;22.40;99.90
30150;DHT22;16962;48.646;9.026;2023-07-24T12:26:47;22.20;99.90
30150;DHT22;16962;48.646;9.026;2023-07-24T12:29:34;21.60;99.90
30150;DHT22;16962;48.646;9.026;2023-07-24T12:32:30;21.20;99.90
30150;DHT22;16962;48.646;9.026;2023-07-24T12:35:17;21.00;99.90
30150;DHT22;16962;48.646;9.026;2023-07-24T12:38:07;20.60;99.90
30150;DHT22;16962;48.646;9.026;2023-07-24T12:40:55;20.40;99.90
30150;DHT22;16962;48.646;9.026;2023-07-24T12:43:51;21.00;99.90
30150;DHT22;16962;48.646;9.026;2023-07-24T12:46:38;21.80;99.90
30150;DHT22;16962;48.646;9.026;2023-07-24T12:49:44;21.70;1.00
30150;DHT22;16962;48.646;9.026;2023-07-24T12:52:32;21.30;1.00
30150;DHT22;16962;48.646;9.026;2023-07-24T12:55:21;21.00;1.00
30150;DHT22;16962;48.646;9.026;2023-07-24T12:58:13;20.80;99.90
30150;DHT22;16962;48.646;9.026;2023-07-24T13:01:08;21.00;99.90
30150;DHT22;16962;48.646;9.026;2023-07-24T13:03:56;21.50;99.90
30150;DHT22;16962;48.646;9.026;2023-07-24T13:06:43;22.10;99.90
30150;DHT22;16962;48.646;9.026;2023-07-24T13:09:31;22.20;89.70
30150;DHT22;16962;48.646;9.026;2023-07-24T13:12:18;22.50;26.00
30150;DHT22;16962;48.646;9.026;2023-07-24T13:15:06;23.40;1.00
30150;DHT22;16962;48.646;9.026;2023-07-24T13:17:53;23.50;1.00
30150;DHT22;16962;48.646;9.026;2023-07-24T13:20:41;23.00;1.00
30150;DHT22;16962;48.646;9.026;2023-07-24T13:23:32;23.10;1.00
30150;DHT22;16962;48.646;9.026;2023-07-24T13:26:19;22.80;1.00
30150;DHT22;16962;48.646;9.026;2023-07-24T13:29:07;22.70;1.00
30150;DHT22;16962;48.646;9.026;2023-07-24T13:31:54;22.10;99.90
30150;DHT22;16962;48.646;9.026;2023-07-24T13:34:44;21.80;99.90
30150;DHT22;16962;48.646;9.026;2023-07-24T13:37:32;21.70;99.90
30150;DHT22;16962;48.646;9.026;2023-07-24T13:40:21;21.90;99.90
30150;DHT22;16962;48.646;9.026;2023-07-24T13:43:31;21.70;99.90
30150;DHT22;16962;48.646;9.026;2023-07-24T13:46:21;21.30;99.90
30150;DHT22;16962;48.646;9.026;2023-07-24T13:49:09;21.10;99.90
30150;DHT22;16962;48.646;9.026;2023-07-24T13:51:59;21.40;99.90
30150;DHT22;16962;48.646;9.026;2023-07-24T13:54:47;22.00;99.90
30150;DHT22;16962;48.646;9.026;2023-07-24T13:57:38;22.20;99.90
30150;DHT22;16962;48.646;9.026;2023-07-24T14:00:37;22.10;99.90
30150;DHT22;16962;48.646;9.026;2023-07-24T14:03:25;22.20;99.90
30150;DHT22;16962;48.646;9.026;2023-07-24T14:06:17;22.50;99.90
30150;DHT22;16962;48.646;9.026;2023-07-24T14:09:06;23.70;99.90
30150;DHT22;16962;48.646;9.026;2023-07-24T14:11:54;24.80;99.90
30150;DHT22;16962;48.646;9.026;2023-07-24T14:14:43;24.50;99.90
30150;DHT22;16962;48.646;9.026;2023-07-24T14:17:37;23.40;99.90
30150;DHT22;16962;48.646;9.026;2023-07-24T14:20:27;23.00;99.90
30150;DHT22;16962;48.646;9.026;2023-07-24T14:23:15;23.40;99.90
30150;DHT22;16962;48.646;9.026;2023-07-24T14:26:02;23.70;99.90
30150;DHT22;16962;48.646;9.026;2023-07-24T14:28:51;23.30;99.90
30150;DHT22;16962;48.646;9.026;2023-07-24T14:31:42;22.80;99.90
30150;DHT22;16962;48.646;9.026;2023-07-24T14:34:30;22.90;99.90
30150;DHT22;16962;48.646;9.026;2023-07-24T14:37:20;23.60;99.90
30150;DHT22;16962;48.646;9.026;2023-07-24T14:40:17;23.60;99.90
30150;DHT22;16962;48.646;9.026;2023-07-24T14:43:08;22.70;99.90
30150;DHT22;16962;48.646;9.026;2023-07-24T14:46:04;22.90;99.90
30150;DHT22;16962;48.646;9.026;2023-07-24T14:48:53;23.80;99.90
30150;DHT22;16962;48.646;9.026;2023-07-24T14:51:41;23.60;99.90
30150;DHT22;16962;48.646;9.026;2023-07-24T14:54:29;23.20;99.90
30150;DHT22;16962;48.646;9.026;2023-07-24T14:57:17;22.60;99.90
30150;DHT22;16962;48.646;9.026;2023-07-24T15:00:12;22.20;99.90
30150;DHT22;16962;48.646;9.026;2023-07-24T15:03:00;22.10;99.90
30150;DHT22;16962;48.646;9.026;2023-07-24T15:05:48;22.90;99.90
30150;DHT22;16962;48.646;9.026;2023-07-24T15:08:36;22.40;99.90
30150;DHT22;16962;48.646;9.026;2023-07-24T15:11:27;21.70;99.90
30150;DHT22;16962;48.646;9.026;2023-07-24T15:14:17;21.30;99.90
30150;DHT22;16962;48.646;9.026;2023-07-24T15:17:04;21.50;99.90
30150;DHT22;16962;48.646;9.026;2023-07-24T15:20:08;21.60;99.90
30150;DHT22;16962;48.646;9.026;2023-07-24T15:22:55;21.30;99.90
30150;DHT22;16962;48.646;9.026;2023-07-24T15:25:49;20.80;99.90
30150;DHT22;16962;48.646;9.026;2023-07-24T15:28:37;20.60;1.00
30150;DHT22;16962;48.646;9.026;2023-07-24T15:31:25;20.70;1.00
30150;DHT22;16962;48.646;9.026;2023-07-24T15:34:12;20.50;1.00
30150;DHT22;16962;48.646;9.026;2023-07-24T15:37:00;20.40;1.00
30150;DHT22;16962;48.646;9.026;2023-07-24T15:39:47;20.20;1.00
30150;DHT22;16962;48.646;9.026;2023-07-24T15:42:35;20.20;1.00
30150;DHT22;16962;48.646;9.026;2023-07-24T15:45:24;20.10;1.00
30150;DHT22;16962;48.646;9.026;2023-07-24T15:48:15;20.10;1.00
30150;DHT22;16962;48.646;9.026;2023-07-24T15:51:12;20.00;1.00
30150;DHT22;16962;48.646;9.026;2023-07-24T15:53:59;20.10;1.00
30150;DHT22;16962;48.646;9.026;2023-07-24T15:56:51;20.30;1.00
30150;DHT22;16962;48.646;9.026;2023-07-24T15:59:39;20.40;1.00
30150;DHT22;16962;48.646;9.026;2023-07-24T16:02:28;20.50;1.00
30150;DHT22;16962;48.646;9.026;2023-07-24T16:05:22;20.80;1.00
30150;DHT22;16962;48.646;9.026;2023-07-24T16:08:09;20.90;1.00
30150;DHT22;16962;48.646;9.026;2023-07-24T16:10:58;20.90;1.00
30150;DHT22;16962;48.646;9.026;2023-07-24T16:13:51;20.70;1.00
30150;DHT22;16962;48.646;9.026;2023-07-24T16:16:38;20.50;1.00
30150;DHT22;16962;48.646;9.026;2023-07-24T16:19:28;20.30;1.00
30150;DHT22;16962;48.646;9.026;2023-07-24T16:22:20;20.30;1.00
30150;DHT22;16962;48.646;9.026;2023-07-24T16:25:09;20.30;1.00
30150;DHT22;16962;48.646;9.026;2023-07-24T16:27:56;20.20;1.00
30150;DHT22;16962;48.646;9.026;2023-07-24T16:30:43;20.20;1.00
30150;DHT22;16962;48.646;9.026;2023-07-24T16:33:31;20.30;1.00
30150;DHT22;16962;48.646;9.026;2023-07-24T16:36:19;20.40;1.00
30150;DHT22;16962;48.646;9.026;2023-07-24T16:39:11;20.50;1.00
30150;DHT22;16962;48.646;9.026;2023-07-24T16:42:02;20.50;1.00
30150;DHT22;16962;48.646;9.026;2023-07-24T16:44:57;20.50;1.00
30150;DHT22;16962;48.646;9.026;2023-07-24T16:47:45;20.50;1.00
30150;DHT22;16962;48.646;9.026;2023-07-24T16:50:33;20.50;1.00
30150;DHT22;16962;48.646;9.026;2023-07-24T16:53:28;20.60;1.00
30150;DHT22;16962;48.646;9.026;2023-07-24T16:56:19;20.60;1.00
30150;DHT22;16962;48.646;9.026;2023-07-24T16:59:07;20.50;1.00
30150;DHT22;16962;48.646;9.026;2023-07-24T17:01:54;20.40;1.00
30150;DHT22;16962;48.646;9.026;2023-07-24T17:04:43;20.40;1.00
30150;DHT22;16962;48.646;9.026;2023-07-24T17:07:36;20.40;1.00
30150;DHT22;16962;48.646;9.026;2023-07-24T17:10:30;20.40;1.00
30150;DHT22;16962;48.646;9.026;2023-07-24T17:13:26;20.50;1.00
30150;DHT22;16962;48.646;9.026;2023-07-24T17:16:20;20.40;1.00
30150;DHT22;16962;48.646;9.026;2023-07-24T17:19:08;20.20;1.00
30150;DHT22;16962;48.646;9.026;2023-07-24T17:21:56;20.10;1.00
30150;DHT22;16962;48.646;9.026;2023-07-24T17:24:47;20.10;1.00
30150;DHT22;16962;48.646;9.026;2023-07-24T17:27:35;20.40;1.00
30150;DHT22;16962;48.646;9.026;2023-07-24T17:30:24;20.40;1.00
30150;DHT22;16962;48.646;9.026;2023-07-24T17:50:20;20.10;1.00
30150;DHT22;16962;48.646;9.026;2023-07-24T17:53:44;20.00;1.00
30150;DHT22;16962;48.646;9.026;2023-07-24T17:57:44;20.00;1.00
30150;DHT22;16962;48.646;9.026;2023-07-24T18:00:52;20.00;1.00
30150;DHT22;16962;48.646;9.026;2023-07-24T18:04:13;19.90;1.00
30150;DHT22;16962;48.646;9.026;2023-07-24T18:07:01;19.80;1.00
30150;DHT22;16962;48.646;9.026;2023-07-24T18:09:48;19.80;23.40
30150;DHT22;16962;48.646;9.026;2023-07-24T18:12:37;19.80;24.40
30150;DHT22;16962;48.646;9.026;2023-07-24T18:15:26;19.90;33.30
30150;DHT22;16962;48.646;9.026;2023-07-24T18:18:13;20.00;26.10
30150;DHT22;16962;48.646;9.026;2023-07-24T18:21:04;20.10;12.70
30150;DHT22;16962;48.646;9.026;2023-07-24T18:23:58;19.80;15.60